Time;durP1;ratioP1;P1;durP2;ratioP2;P2;SDS_P1;SDS_P2;PMS_P1;PMS_P2;Temp;Humidity;BMP_temperature;BMP_pressure;BME280_temperature;BME280_humidity;BME280_pressure;Samples;Min_cycle;Max_cycle;Signal;HPM_P1;HPM_P2
2020/12/03 00:01:04;;;;;;;19.67;3.85;;;20.10;84.50;;;;;;5068824;28;20878;-87
2020/12/03 00:03:46;;;;;;;19.38;3.60;;;20.20;82.40;;;;;;5069227;28;20381;-87
2020/12/03 00:06:27;;;;;;;18.98;3.25;;;20.10;82.90;;;;;;5069129;28;20402;-86
2020/12/03 00:09:04;;;;;;;17.30;3.42;;;20.00;83.90;;;;;;5068936;28;20900;-87
2020/12/03 00:11:34;;;;;;;13.20;3.20;;;19.90;84.70;;;;;;5069832;28;20896;-88
2020/12/03 00:14:01;;;;;;;12.63;2.60;;;19.90;84.30;;;;;;5071867;28;20481;-87
2020/12/03 00:16:30;;;;;;;10.55;2.10;;;19.80;85.50;;;;;;5065623;28;20481;-87
2020/12/03 00:18:58;;;;;;;14.68;2.40;;;19.70;85.40;;;;;;5070021;28;20451;-86
2020/12/03 00:21:46;;;;;;;11.05;2.40;;;19.90;86.00;;;;;;5071245;28;21160;-89
2020/12/03 00:24:19;;;;;;;10.90;2.22;;;20.20;84.90;;;;;;5068865;28;20428;-87
2020/12/03 00:26:46;;;;;;;13.32;2.45;;;20.30;83.80;;;;;;5069056;28;20402;-88
2020/12/03 00:29:13;;;;;;;9.13;2.13;;;20.20;84.30;;;;;;5069341;28;20460;-87
2020/12/03 00:31:43;;;;;;;10.02;2.25;;;20.20;83.10;;;;;;5068407;28;20783;-89
2020/12/03 00:34:11;;;;;;;10.13;1.83;;;20.10;84.40;;;;;;5070910;28;20871;-85
2020/12/03 00:36:40;;;;;;;10.90;2.22;;;20.00;86.10;;;;;;5072577;28;20424;-86
2020/12/03 00:39:13;;;;;;;12.93;2.60;;;20.00;85.50;;;;;;5078380;28;20405;-86
2020/12/03 00:41:40;;;;;;;10.35;2.15;;;19.70;86.60;;;;;;5070491;28;20429;-86
2020/12/03 00:44:07;;;;;;;8.80;1.90;;;19.60;87.90;;;;;;5070710;28;20999;-85
2020/12/03 00:46:35;;;;;;;10.00;2.05;;;19.50;86.90;;;;;;5071900;28;20402;-87
2020/12/03 00:49:02;;;;;;;10.15;2.08;;;19.50;88.50;;;;;;5078143;28;20605;-86
2020/12/03 00:51:30;;;;;;;8.32;2.30;;;19.60;88.20;;;;;;5076796;28;20489;-87
2020/12/03 00:53:57;;;;;;;6.65;1.45;;;19.80;86.60;;;;;;5069276;28;20761;-86
2020/12/03 00:56:24;;;;;;;6.80;2.00;;;20.00;87.10;;;;;;5067645;28;20414;-87
2020/12/03 00:58:51;;;;;;;6.70;1.70;;;20.10;88.00;;;;;;5067888;28;20417;-87
2020/12/03 01:01:19;;;;;;;6.90;1.65;;;20.10;85.50;;;;;;5069259;28;20508;-86
2020/12/03 01:03:48;;;;;;;5.25;1.63;;;20.00;86.40;;;;;;5068496;28;20393;-86
2020/12/03 01:06:17;;;;;;;8.13;1.90;;;19.90;87.60;;;;;;5068182;28;20443;-85
2020/12/03 01:08:44;;;;;;;7.15;1.40;;;19.90;88.40;;;;;;5063960;28;20433;-84
2020/12/03 01:11:11;;;;;;;7.45;1.67;;;19.90;87.70;;;;;;5071735;28;20741;-85
2020/12/03 01:13:38;;;;;;;8.20;1.88;;;19.90;88.30;;;;;;5070092;28;20745;-87
2020/12/03 01:16:05;;;;;;;5.95;1.67;;;19.80;88.20;;;;;;5068109;28;20374;-85
2020/12/03 01:18:32;;;;;;;5.32;1.42;;;19.70;88.50;;;;;;5076878;28;20852;-87
2020/12/03 01:20:58;;;;;;;12.93;2.08;;;19.60;90.00;;;;;;5068868;28;20397;-86
2020/12/03 01:23:25;;;;;;;7.47;2.20;;;19.40;90.20;;;;;;5075861;28;20480;-87
2020/12/03 01:25:52;;;;;;;11.75;2.60;;;19.20;90.90;;;;;;5069803;28;20374;-87
2020/12/03 01:28:19;;;;;;;6.75;1.90;;;18.90;91.80;;;;;;5080189;28;20903;-86
2020/12/03 01:30:46;;;;;;;7.43;2.15;;;18.70;92.40;;;;;;5074110;28;20385;-86
2020/12/03 01:33:13;;;;;;;10.18;2.67;;;18.60;93.10;;;;;;5075027;28;20439;-87
2020/12/03 01:35:40;;;;;;;9.43;2.13;;;18.50;93.50;;;;;;5072942;28;20793;-88
2020/12/03 01:38:07;;;;;;;8.63;2.03;;;18.60;93.70;;;;;;5072772;28;20439;-87
2020/12/03 01:40:40;;;;;;;9.80;1.90;;;18.70;94.00;;;;;;5072794;28;20386;-88
2020/12/03 01:43:07;;;;;;;9.33;2.23;;;18.70;93.90;;;;;;5069315;28;20393;-88
2020/12/03 01:45:58;;;;;;;8.90;1.92;;;18.80;93.80;;;;;;5062401;28;20785;-88
2020/12/03 01:48:31;;;;;;;8.63;2.03;;;18.70;93.30;;;;;;5067717;28;20399;-88
2020/12/03 01:51:02;;;;;;;8.27;1.77;;;18.70;93.50;;;;;;5084920;28;20450;-88
2020/12/03 01:53:30;;;;;;;11.40;2.20;;;18.70;94.00;;;;;;5068196;28;20398;-89
2020/12/03 01:55:57;;;;;;;10.85;2.22;;;18.70;93.60;;;;;;5069098;28;20536;-87
2020/12/03 01:58:42;;;;;;;10.02;2.40;;;18.70;93.60;;;;;;5071778;28;20764;-88
2020/12/03 02:01:11;;;;;;;11.55;2.50;;;18.70;93.90;;;;;;5069168;28;20427;-87
2020/12/03 02:03:47;;;;;;;9.27;2.05;;;18.90;93.90;;;;;;5062446;28;20431;-87
2020/12/03 02:06:22;;;;;;;9.73;2.88;;;19.00;93.90;;;;;;5068449;28;20398;-87
2020/12/03 02:08:49;;;;;;;10.20;2.67;;;19.30;93.50;;;;;;5068519;28;20413;-88
2020/12/03 02:11:18;;;;;;;12.95;2.60;;;19.50;93.10;;;;;;5067449;28;20402;-84
2020/12/03 02:14:04;;;;;;;13.82;2.83;;;19.50;93.00;;;;;;5069136;28;20475;-88
2020/12/03 02:16:34;;;;;;;10.45;2.45;;;19.50;92.40;;;;;;5070488;28;20398;-88
2020/12/03 02:19:02;;;;;;;11.35;2.70;;;19.30;92.60;;;;;;5068612;28;20420;-87
2020/12/03 02:21:29;;;;;;;6.80;2.50;;;19.20;92.70;;;;;;5069172;28;21644;-88
2020/12/03 02:23:56;;;;;;;12.43;2.78;;;19.10;92.80;;;;;;5069315;28;20416;-86
2020/12/03 02:26:23;;;;;;;12.45;2.95;;;18.90;93.00;;;;;;5067793;28;20497;-87
2020/12/03 02:28:50;;;;;;;16.23;3.58;;;18.70;93.20;;;;;;5086243;28;20504;-88
2020/12/03 02:31:18;;;;;;;19.40;3.63;;;18.60;93.80;;;;;;5068141;28;20382;-87
2020/12/03 02:33:45;;;;;;;20.70;4.30;;;18.60;94.10;;;;;;5066144;28;20401;-87
2020/12/03 02:36:14;;;;;;;19.57;3.70;;;18.60;93.80;;;;;;5066762;28;20381;-86
2020/12/03 02:38:42;;;;;;;18.13;3.77;;;18.70;93.60;;;;;;5068685;28;20388;-87
2020/12/03 02:41:10;;;;;;;16.42;3.63;;;18.80;93.90;;;;;;5068388;28;20362;-87
2020/12/03 02:43:37;;;;;;;13.73;3.25;;;18.90;93.10;;;;;;5068770;28;20722;-86
2020/12/03 02:46:05;;;;;;;21.33;4.07;;;18.90;93.30;;;;;;5066173;28;20441;-87
2020/12/03 02:48:32;;;;;;;17.92;4.47;;;19.00;93.40;;;;;;5073073;28;20412;-87
2020/12/03 02:50:59;;;;;;;19.57;4.40;;;19.00;91.90;;;;;;5071396;28;20533;-85
2020/12/03 02:53:26;;;;;;;21.37;3.80;;;19.00;92.30;;;;;;5067527;28;20473;-87
2020/12/03 02:55:53;;;;;;;20.08;3.63;;;19.00;92.40;;;;;;5069144;28;20756;-89
2020/12/03 02:58:20;;;;;;;19.95;4.18;;;19.10;92.20;;;;;;5074447;28;20494;-87
2020/12/03 03:00:46;;;;;;;18.73;3.78;;;19.20;91.70;;;;;;5067132;28;20448;-87
2020/12/03 03:03:13;;;;;;;17.10;3.28;;;19.20;92.30;;;;;;5068511;28;20799;-90
2020/12/03 03:05:40;;;;;;;20.33;3.50;;;19.30;91.40;;;;;;5069435;28;20395;-88
2020/12/03 03:08:07;;;;;;;21.30;3.67;;;19.30;91.50;;;;;;5069134;28;20417;-88
2020/12/03 03:10:34;;;;;;;22.88;4.57;;;19.20;91.90;;;;;;5070840;28;20404;-87
2020/12/03 03:13:01;;;;;;;19.77;4.25;;;19.20;91.70;;;;;;5068210;28;20911;-88
2020/12/03 03:15:28;;;;;;;18.30;3.97;;;19.10;92.30;;;;;;5066583;28;20433;-87
2020/12/03 03:17:55;;;;;;;23.00;4.50;;;19.00;92.10;;;;;;5064725;28;20951;-88
2020/12/03 03:20:22;;;;;;;20.63;3.75;;;19.00;92.10;;;;;;5066834;28;20362;-88
2020/12/03 03:22:49;;;;;;;22.48;3.50;;;19.10;92.60;;;;;;5072938;28;20933;-85
2020/12/03 03:25:16;;;;;;;25.73;4.13;;;19.20;91.70;;;;;;5068698;28;20386;-88
2020/12/03 03:27:43;;;;;;;19.20;4.10;;;19.20;90.90;;;;;;5071742;28;20412;-86
2020/12/03 03:30:10;;;;;;;19.48;3.47;;;19.20;91.60;;;;;;5070310;28;20403;-88
2020/12/03 03:32:37;;;;;;;24.42;3.63;;;19.20;91.70;;;;;;5072904;28;20401;-87
2020/12/03 03:35:06;;;;;;;24.38;4.18;;;19.40;91.50;;;;;;5073744;28;20492;-86
2020/12/03 03:37:35;;;;;;;20.50;4.03;;;19.40;91.10;;;;;;5071341;28;21027;-88
2020/12/03 03:40:05;;;;;;;19.98;4.97;;;19.40;91.10;;;;;;5075224;28;20734;-90
2020/12/03 03:42:32;;;;;;;21.40;4.35;;;19.40;91.40;;;;;;5071604;28;20394;-89
2020/12/03 03:44:59;;;;;;;17.70;3.53;;;19.50;91.20;;;;;;5066155;28;20748;-88
2020/12/03 03:47:26;;;;;;;19.45;3.55;;;19.50;91.30;;;;;;5075263;28;20401;-87
2020/12/03 03:49:53;;;;;;;21.35;4.20;;;19.50;91.40;;;;;;5071211;28;20393;-87
2020/12/03 03:52:20;;;;;;;25.17;3.70;;;19.30;91.50;;;;;;5075000;28;20448;-87
2020/12/03 03:54:47;;;;;;;16.57;3.23;;;19.20;91.90;;;;;;5074932;28;20974;-88
2020/12/03 03:57:14;;;;;;;24.00;3.70;;;19.00;92.50;;;;;;5071393;28;20496;-90
2020/12/03 03:59:41;;;;;;;21.10;3.70;;;19.00;92.40;;;;;;5071375;28;20416;-89
2020/12/03 04:02:08;;;;;;;23.73;4.30;;;19.00;92.40;;;;;;5071119;28;20893;-87
2020/12/03 04:04:35;;;;;;;27.20;4.75;;;19.00;92.20;;;;;;5071493;28;20381;-87
2020/12/03 04:07:02;;;;;;;30.15;4.63;;;19.00;92.50;;;;;;5075849;28;20955;-87
2020/12/03 04:09:29;;;;;;;23.50;4.80;;;19.00;92.40;;;;;;5070932;28;20760;-88
2020/12/03 04:11:57;;;;;;;26.27;4.32;;;19.00;92.30;;;;;;5071620;28;20382;-87
2020/12/03 04:14:24;;;;;;;24.52;4.80;;;19.00;92.80;;;;;;5072484;28;20363;-88
2020/12/03 04:16:51;;;;;;;26.40;4.82;;;18.90;92.80;;;;;;5070378;28;20403;-88
2020/12/03 04:19:18;;;;;;;24.05;4.60;;;19.00;92.90;;;;;;5070250;28;20465;-88
2020/12/03 04:21:45;;;;;;;21.33;5.05;;;19.10;92.90;;;;;;5071177;28;20500;-88
2020/12/03 04:24:12;;;;;;;21.95;4.72;;;19.10;92.70;;;;;;5072138;28;20886;-88
2020/12/03 04:26:39;;;;;;;27.50;4.68;;;19.20;92.10;;;;;;5071878;28;20853;-87
2020/12/03 04:29:06;;;;;;;23.67;4.80;;;19.20;92.30;;;;;;5070594;28;20546;-88
2020/12/03 04:31:33;;;;;;;32.57;5.17;;;19.20;92.90;;;;;;5071924;28;20891;-87
2020/12/03 04:34:00;;;;;;;26.63;5.10;;;19.20;92.80;;;;;;5071903;28;20746;-89
2020/12/03 04:36:28;;;;;;;22.30;5.00;;;19.30;92.30;;;;;;5070833;28;20375;-87
2020/12/03 04:38:55;;;;;;;22.05;4.35;;;19.20;92.50;;;;;;5070035;28;20852;-87
2020/12/03 04:41:21;;;;;;;24.30;4.65;;;19.20;92.80;;;;;;5071475;28;20388;-87
2020/12/03 04:44:02;;;;;;;23.25;4.13;;;19.10;92.90;;;;;;5072604;28;20412;-87
2020/12/03 04:46:36;;;;;;;25.85;4.40;;;19.00;93.10;;;;;;5079220;28;20802;-87
2020/12/03 04:49:23;;;;;;;22.00;4.47;;;18.90;93.70;;;;;;5069945;28;20414;-87
2020/12/03 04:52:17;;;;;;;26.73;4.95;;;18.90;93.90;;;;;;5074207;28;20378;-87
2020/12/03 04:54:51;;;;;;;24.75;4.90;;;18.90;93.50;;;;;;5068939;28;20390;-87
2020/12/03 04:57:22;;;;;;;25.67;5.13;;;18.80;93.80;;;;;;5070449;28;20401;-85
2020/12/03 05:00:12;;;;;;;25.65;5.47;;;18.80;93.50;;;;;;5069840;28;20382;-88
2020/12/03 05:03:16;;;;;;;25.70;5.05;;;18.70;93.40;;;;;;5070549;28;20876;-87
2020/12/03 05:06:10;;;;;;;26.42;5.03;;;18.80;93.80;;;;;;5071233;28;20428;-86
2020/12/03 05:08:53;;;;;;;20.87;4.70;;;18.90;93.40;;;;;;5053894;28;20506;-86
2020/12/03 05:11:28;;;;;;;29.10;5.00;;;19.10;93.00;;;;;;5077455;28;20810;-88
2020/12/03 05:14:02;;;;;;;24.30;4.93;;;19.10;92.60;;;;;;5081062;28;20440;-86
2020/12/03 05:16:52;;;;;;;29.67;4.82;;;19.00;92.00;;;;;;5069482;28;20390;-86
2020/12/03 05:20:05;;;;;;;24.63;4.45;;;19.10;92.30;;;;;;5068343;28;20393;-88
2020/12/03 05:22:32;;;;;;;25.02;4.97;;;19.00;92.00;;;;;;5056475;28;20760;-88
2020/12/03 05:24:59;;;;;;;20.80;4.20;;;19.10;92.00;;;;;;5073253;28;20382;-89
2020/12/03 05:27:34;;;;;;;22.40;4.28;;;19.20;91.40;;;;;;5070982;28;20394;-88
2020/12/03 05:30:09;;;;;;;20.58;4.57;;;19.30;90.90;;;;;;5069770;28;20436;-88
2020/12/03 05:32:39;;;;;;;24.45;4.43;;;19.30;90.90;;;;;;5074987;28;20386;-89
2020/12/03 05:35:09;;;;;;;24.70;4.80;;;19.30;90.80;;;;;;5076561;28;20399;-89
2020/12/03 05:37:39;;;;;;;22.35;4.50;;;19.40;90.50;;;;;;5072847;28;20394;-87
2020/12/03 05:40:18;;;;;;;21.42;4.28;;;19.40;90.50;;;;;;5070505;28;20468;-89
2020/12/03 05:42:46;;;;;;;26.77;4.67;;;19.50;89.70;;;;;;5070946;28;20373;-88
2020/12/03 05:45:27;;;;;;;23.48;4.18;;;19.50;89.90;;;;;;5070255;28;20425;-88
2020/12/03 05:47:57;;;;;;;22.33;4.40;;;19.60;90.20;;;;;;5070551;28;20397;-87
2020/12/03 05:50:37;;;;;;;27.73;4.45;;;19.60;90.00;;;;;;5070115;28;20397;-86
2020/12/03 05:53:20;;;;;;;23.33;4.75;;;19.60;90.20;;;;;;5070041;28;20466;-89
2020/12/03 05:55:50;;;;;;;18.00;4.37;;;19.70;89.60;;;;;;5070649;28;20413;-87
2020/12/03 05:58:22;;;;;;;25.25;4.68;;;19.70;89.70;;;;;;5068730;28;20405;-88
2020/12/03 06:00:51;;;;;;;21.73;4.35;;;19.70;89.90;;;;;;5072471;28;20388;-88
2020/12/03 06:03:36;;;;;;;23.58;4.63;;;19.70;89.50;;;;;;5070035;28;20463;-88
2020/12/03 06:06:12;;;;;;;24.27;5.03;;;19.60;88.60;;;;;;5075704;28;20934;-89
2020/12/03 06:09:05;;;;;;;23.85;4.72;;;19.50;89.70;;;;;;5073813;28;20773;-87
2020/12/03 06:12:09;;;;;;;20.93;4.50;;;19.30;90.20;;;;;;5066012;28;20410;-88
2020/12/03 06:15:20;;;;;;;20.92;4.60;;;19.20;90.40;;;;;;5071869;28;20874;-86
2020/12/03 06:18:17;;;;;;;21.10;4.05;;;19.20;91.00;;;;;;5062611;28;20405;-89
2020/12/03 06:20:53;;;;;;;21.70;4.35;;;19.10;90.70;;;;;;5069975;28;20400;-87
2020/12/03 06:24:02;;;;;;;25.17;4.10;;;19.10;90.70;;;;;;5069111;28;20448;-87
2020/12/03 06:26:35;;;;;;;23.40;3.97;;;19.10;90.80;;;;;;5076270;28;20416;-86
2020/12/03 06:29:22;;;;;;;19.40;4.13;;;19.20;91.00;;;;;;5069888;28;20390;-86
2020/12/03 06:32:10;;;;;;;18.30;4.25;;;19.20;90.50;;;;;;5068277;28;20420;-86
2020/12/03 06:34:41;;;;;;;16.23;3.88;;;19.30;90.60;;;;;;5069737;28;20374;-86
2020/12/03 06:37:22;;;;;;;24.52;4.00;;;19.30;90.70;;;;;;5069851;28;20771;-86
2020/12/03 06:40:04;;;;;;;21.35;3.88;;;19.30;90.60;;;;;;5074840;28;20402;-86
2020/12/03 06:42:43;;;;;;;20.58;4.22;;;19.30;90.50;;;;;;5072435;28;20397;-87
2020/12/03 06:45:23;;;;;;;21.88;4.13;;;19.30;90.70;;;;;;5067987;28;20442;-87
2020/12/03 06:48:13;;;;;;;20.80;4.40;;;19.30;90.50;;;;;;5075496;28;20398;-88
2020/12/03 06:51:16;;;;;;;19.90;4.18;;;19.30;90.50;;;;;;5068271;28;20401;-86
2020/12/03 06:54:04;;;;;;;18.20;3.83;;;19.40;90.90;;;;;;5083828;28;20685;-85
2020/12/03 06:56:57;;;;;;;22.98;4.30;;;19.50;90.70;;;;;;5082046;28;20464;-86
2020/12/03 06:59:53;;;;;;;21.95;4.30;;;19.50;90.50;;;;;;5066400;28;20476;-89
2020/12/03 07:02:44;;;;;;;18.35;4.00;;;19.40;90.40;;;;;;5041358;28;20394;-86
2020/12/03 07:06:01;;;;;;;21.63;4.28;;;19.40;90.40;;;;;;5073138;28;20388;-86
2020/12/03 07:08:58;;;;;;;23.33;4.25;;;19.30;90.70;;;;;;5045867;28;20422;-86
2020/12/03 07:11:43;;;;;;;20.40;4.07;;;19.30;91.00;;;;;;5046998;28;20434;-87
2020/12/03 07:14:47;;;;;;;21.25;4.35;;;19.30;91.00;;;;;;5071829;28;20410;-87
2020/12/03 07:17:38;;;;;;;23.10;4.95;;;19.30;91.00;;;;;;5069760;28;20420;-87
2020/12/03 07:20:32;;;;;;;25.58;4.95;;;19.20;91.10;;;;;;5068849;28;20389;-87
2020/12/03 07:23:07;;;;;;;22.63;4.78;;;19.20;91.30;;;;;;5084600;28;20735;-85
2020/12/03 07:25:34;;;;;;;26.15;5.00;;;19.20;91.40;;;;;;5082315;28;20396;-87
2020/12/03 07:28:25;;;;;;;28.57;4.70;;;19.20;91.40;;;;;;5073809;28;20808;-85
2020/12/03 07:31:00;;;;;;;22.33;4.50;;;19.20;91.50;;;;;;5072384;28;20392;-87
2020/12/03 07:33:58;;;;;;;23.30;4.18;;;19.20;91.60;;;;;;5077102;28;20600;-87
2020/12/03 07:36:54;;;;;;;28.58;5.68;;;19.20;91.40;;;;;;5069152;28;20393;-86
2020/12/03 07:39:28;;;;;;;18.58;4.40;;;19.10;91.60;;;;;;5079752;28;20416;-86
2020/12/03 07:42:02;;;;;;;26.73;5.20;;;19.10;91.60;;;;;;5069158;28;20392;-86
2020/12/03 07:44:42;;;;;;;26.77;5.70;;;19.20;91.40;;;;;;5072910;28;20438;-87
2020/12/03 07:47:33;;;;;;;31.63;5.10;;;19.10;91.60;;;;;;5067979;28;20448;-88
2020/12/03 07:50:28;;;;;;;26.60;5.00;;;19.10;91.60;;;;;;5065694;28;20817;-87
2020/12/03 07:53:16;;;;;;;31.65;5.32;;;19.10;91.70;;;;;;5068641;28;20402;-84
2020/12/03 07:55:43;;;;;;;33.50;5.53;;;19.10;91.70;;;;;;5068609;28;20510;-88
2020/12/03 07:58:43;;;;;;;26.05;4.75;;;19.10;91.80;;;;;;5084797;28;20397;-86
2020/12/03 08:01:36;;;;;;;27.67;5.32;;;19.10;91.70;;;;;;5055585;28;20386;-87
2020/12/03 08:04:09;;;;;;;30.40;5.45;;;19.10;91.90;;;;;;5069720;28;20957;-87
2020/12/03 08:06:40;;;;;;;36.15;6.22;;;19.10;91.80;;;;;;5073520;28;20449;-88
2020/12/03 08:09:07;;;;;;;31.40;5.53;;;19.10;92.00;;;;;;5067886;28;20481;-86
2020/12/03 08:11:58;;;;;;;26.50;5.17;;;19.10;92.20;;;;;;5068219;28;20366;-85
2020/12/03 08:14:45;;;;;;;38.30;6.00;;;19.10;92.10;;;;;;5073729;28;20497;-87
2020/12/03 08:17:18;;;;;;;26.02;4.75;;;19.10;92.10;;;;;;5083503;28;20416;-87
2020/12/03 08:19:50;;;;;;;29.57;4.97;;;19.10;92.00;;;;;;5067043;28;20397;-88
2020/12/03 08:22:34;;;;;;;33.33;5.40;;;19.20;92.10;;;;;;5067059;28;20389;-88
2020/12/03 08:25:05;;;;;;;30.90;5.15;;;19.20;92.20;;;;;;5067311;28;20382;-88
2020/12/03 08:27:32;;;;;;;27.27;5.55;;;19.20;92.00;;;;;;5068317;28;20493;-88
2020/12/03 08:29:58;;;;;;;26.50;4.82;;;19.10;92.10;;;;;;5067995;28;20390;-89
2020/12/03 08:32:26;;;;;;;31.38;5.35;;;19.10;92.40;;;;;;5069332;28;20370;-88
2020/12/03 08:34:53;;;;;;;31.03;5.93;;;19.10;92.30;;;;;;5074004;28;20462;-88
2020/12/03 08:37:24;;;;;;;29.40;5.53;;;19.10;92.20;;;;;;5069742;28;20469;-89
2020/12/03 08:40:48;;;;;;;;;;;;;;;;;;;;;
2020/12/03 08:43:08;;;;;;;27.42;5.30;;;19.10;92.30;;;;;;5074848;28;20384;-86
2020/12/03 08:45:47;;;;;;;32.63;5.70;;;19.10;92.50;;;;;;5069691;28;20378;-86
2020/12/03 08:48:17;;;;;;;30.07;5.97;;;19.10;92.40;;;;;;5066576;28;20495;-86
2020/12/03 08:50:44;;;;;;;34.03;6.20;;;19.10;92.60;;;;;;5066569;28;20453;-87
2020/12/03 08:53:12;;;;;;;30.52;5.82;;;19.00;92.70;;;;;;5083580;28;20418;-87
2020/12/03 08:55:41;;;;;;;34.40;5.90;;;19.10;92.60;;;;;;5084043;28;20398;-85
2020/12/03 08:58:10;;;;;;;26.00;5.53;;;19.10;92.70;;;;;;5068715;28;20378;-87
2020/12/03 09:00:42;;;;;;;39.10;6.55;;;19.10;92.60;;;;;;5084049;28;20927;-87
2020/12/03 09:03:14;;;;;;;39.95;6.07;;;19.10;92.70;;;;;;5066940;28;20817;-87
2020/12/03 09:05:45;;;;;;;26.43;5.37;;;19.10;92.80;;;;;;5068947;28;20386;-88
2020/12/03 09:08:20;;;;;;;35.83;5.68;;;19.10;92.90;;;;;;5068203;28;20406;-88
2020/12/03 09:10:50;;;;;;;34.83;6.03;;;19.10;92.80;;;;;;5066483;28;20393;-89
2020/12/03 09:13:18;;;;;;;33.95;5.70;;;19.00;92.90;;;;;;5050347;28;20409;-88
2020/12/03 09:15:47;;;;;;;31.43;5.30;;;19.10;93.00;;;;;;5068785;28;20385;-88
2020/12/03 09:18:15;;;;;;;26.33;5.70;;;19.00;93.00;;;;;;5083799;28;20856;-87
2020/12/03 09:20:43;;;;;;;31.27;6.63;;;19.00;93.10;;;;;;5066773;28;20367;-87
2020/12/03 09:23:31;;;;;;;37.10;6.32;;;19.00;93.00;;;;;;5067151;28;20373;-88
2020/12/03 09:26:10;;;;;;;29.58;6.00;;;19.00;92.90;;;;;;5068815;28;21156;-88
2020/12/03 09:28:37;;;;;;;32.63;6.32;;;19.00;93.00;;;;;;5067950;28;21868;-88
2020/12/03 09:31:04;;;;;;;32.03;6.03;;;19.10;93.10;;;;;;5069610;28;20582;-85
2020/12/03 09:33:33;;;;;;;31.20;5.38;;;19.10;93.40;;;;;;5068258;28;20748;-87
2020/12/03 09:36:00;;;;;;;36.03;5.43;;;19.10;93.10;;;;;;5067729;28;20370;-87
2020/12/03 09:38:27;;;;;;;30.63;5.82;;;19.10;93.10;;;;;;5067327;28;20369;-87
2020/12/03 09:40:54;;;;;;;31.00;5.95;;;19.00;93.20;;;;;;5067691;28;20374;-86
2020/12/03 09:43:23;;;;;;;37.00;5.90;;;19.10;93.20;;;;;;5067023;28;20369;-87
2020/12/03 09:45:58;;;;;;;37.10;5.78;;;19.00;93.30;;;;;;5066155;28;20383;-87
2020/12/03 09:48:27;;;;;;;35.55;6.35;;;19.00;93.40;;;;;;5066382;28;20425;-88
2020/12/03 09:50:57;;;;;;;33.17;6.13;;;19.00;93.50;;;;;;5067344;28;20950;-88
2020/12/03 09:53:27;;;;;;;36.65;6.13;;;19.00;93.50;;;;;;5082259;28;20386;-88
2020/12/03 09:56:01;;;;;;;34.40;5.57;;;19.00;93.50;;;;;;5066450;28;20402;-88
2020/12/03 09:58:29;;;;;;;28.58;5.55;;;18.90;93.60;;;;;;5066139;28;20417;-88
2020/12/03 10:01:03;;;;;;;33.40;5.38;;;19.00;93.70;;;;;;5065544;28;20366;-88
2020/12/03 10:03:48;;;;;;;37.47;5.40;;;19.00;93.60;;;;;;5067697;28;20382;-88
2020/12/03 10:06:32;;;;;;;33.97;5.70;;;19.00;93.70;;;;;;5067401;28;20734;-89
2020/12/03 10:09:29;;;;;;;30.63;6.32;;;19.00;94.00;;;;;;5066008;28;20402;-88
2020/12/03 10:12:02;;;;;;;38.17;6.20;;;18.90;93.80;;;;;;5065908;28;20428;-87
2020/12/03 10:15:08;;;;;;;33.40;5.30;;;18.90;93.90;;;;;;5064954;28;20370;-88
2020/12/03 10:18:03;;;;;;;28.27;4.60;;;18.90;93.80;;;;;;5066815;28;21099;-87
2020/12/03 10:20:54;;;;;;;34.17;5.78;;;18.90;93.90;;;;;;5068324;28;20433;-87
2020/12/03 10:23:39;;;;;;;34.13;5.75;;;18.90;94.00;;;;;;5066462;28;20393;-88
2020/12/03 10:26:31;;;;;;;29.50;5.13;;;18.80;94.00;;;;;;5059300;28;20393;-89
2020/12/03 10:29:24;;;;;;;31.07;5.57;;;18.80;94.20;;;;;;5065995;28;20406;-87
2020/12/03 10:31:52;;;;;;;27.10;5.78;;;18.80;94.30;;;;;;5065449;28;20398;-87
2020/12/03 10:34:21;;;;;;;36.65;6.65;;;18.70;94.50;;;;;;5062005;28;20402;-86
2020/12/03 10:37:09;;;;;;;34.80;5.38;;;18.70;94.50;;;;;;5066011;28;20401;-87
2020/12/03 10:40:00;;;;;;;28.93;5.63;;;18.70;94.70;;;;;;5058598;28;20526;-89
2020/12/03 10:42:44;;;;;;;28.52;5.03;;;18.70;94.70;;;;;;5083962;28;20383;-88
2020/12/03 10:45:20;;;;;;;30.45;5.68;;;18.70;94.90;;;;;;5066257;28;20389;-88
2020/12/03 10:48:00;;;;;;;37.72;6.25;;;18.70;94.90;;;;;;5063928;28;20430;-88
2020/12/03 10:50:47;;;;;;;26.98;5.95;;;18.80;95.20;;;;;;5064769;28;20509;-88
2020/12/03 10:53:24;;;;;;;33.47;6.68;;;18.70;94.90;;;;;;5051201;28;20428;-86
2020/12/03 10:56:14;;;;;;;33.47;6.25;;;18.80;94.90;;;;;;5058853;28;21158;-88
2020/12/03 10:59:18;;;;;;;30.35;6.20;;;18.80;94.80;;;;;;5066237;28;20385;-86
2020/12/03 11:01:52;;;;;;;31.70;6.97;;;18.90;94.80;;;;;;5064716;28;20531;-88
2020/12/03 11:04:20;;;;;;;22.77;6.27;;;18.90;94.80;;;;;;5066027;28;20471;-87
2020/12/03 11:06:47;;;;;;;40.80;8.35;;;18.90;94.80;;;;;;5064441;28;20374;-88
2020/12/03 11:09:28;;;;;;;35.83;9.07;;;18.90;94.70;;;;;;5064866;28;20410;-88
2020/12/03 11:11:58;;;;;;;37.00;9.97;;;19.00;94.70;;;;;;5018172;28;20941;-88
2020/12/03 11:14:31;;;;;;;41.37;10.00;;;18.90;94.80;;;;;;5045868;28;20387;-89
2020/12/03 11:17:15;;;;;;;40.97;11.23;;;18.90;94.90;;;;;;5064332;28;20586;-88
2020/12/03 11:19:44;;;;;;;39.72;12.07;;;18.90;95.00;;;;;;5063219;28;20798;-88
2020/12/03 11:23:01;;;;;;;44.40;13.57;;;18.90;95.00;;;;;;5064239;28;20393;-88
2020/12/03 11:25:31;;;;;;;36.13;13.80;;;18.90;95.20;;;;;;5058877;28;21005;-87
2020/12/03 11:28:04;;;;;;;31.25;12.40;;;18.90;95.30;;;;;;5064328;28;20468;-86
2020/12/03 11:30:32;;;;;;;35.45;12.75;;;18.90;95.20;;;;;;5064779;28;20374;-87
2020/12/03 11:32:59;;;;;;;40.35;12.43;;;18.90;95.20;;;;;;5066180;28;20428;-87
2020/12/03 11:35:35;;;;;;;36.85;13.30;;;18.90;95.20;;;;;;5067417;28;20451;-90
2020/12/03 11:38:04;;;;;;;39.13;13.38;;;18.90;95.20;;;;;;5050266;28;20405;-87
2020/12/03 11:40:51;;;;;;;46.05;14.43;;;18.90;95.20;;;;;;5067114;28;20389;-91
2020/12/03 11:43:55;;;;;;;37.83;12.73;;;18.80;95.40;;;;;;5059571;28;20404;-87
2020/12/03 11:49:13;;;;;;;38.00;13.33;;;18.80;95.50;;;;;;5068877;28;20461;-86
2020/12/03 11:51:40;;;;;;;37.92;14.50;;;18.80;95.50;;;;;;5067066;28;20386;-87
2020/12/03 11:54:10;;;;;;;35.72;14.20;;;18.80;95.70;;;;;;5066718;28;20404;-86
2020/12/03 11:56:39;;;;;;;35.45;12.88;;;18.70;95.70;;;;;;5068869;28;20829;-87
2020/12/03 11:59:19;;;;;;;30.50;13.85;;;18.80;95.70;;;;;;5066998;28;20748;-85
2020/12/03 12:01:59;;;;;;;44.85;14.13;;;18.80;95.60;;;;;;5070344;28;20433;-87
2020/12/03 12:07:45;;;;;;;38.35;15.05;;;18.70;95.50;;;;;;5069132;28;20758;-88
2020/12/03 12:12:20;;;;;;;36.65;14.65;;;18.80;95.40;;;;;;5072082;28;20846;-87
2020/12/03 12:14:47;;;;;;;30.38;14.40;;;18.80;95.40;;;;;;5072263;28;20386;-88
2020/12/03 12:17:17;;;;;;;32.25;13.85;;;18.80;95.50;;;;;;5072343;28;20461;-87
2020/12/03 12:19:45;;;;;;;31.50;14.00;;;18.70;95.50;;;;;;5070962;28;20432;-88
2020/12/03 12:22:14;;;;;;;34.60;14.75;;;18.70;95.50;;;;;;5070799;28;20496;-88
2020/12/03 12:24:42;;;;;;;38.97;14.63;;;18.70;95.50;;;;;;5107333;27;20760;-88
2020/12/03 12:27:10;;;;;;;28.45;14.90;;;18.60;95.50;;;;;;5070098;28;20382;-87
2020/12/03 12:29:38;;;;;;;31.45;14.38;;;18.60;95.70;;;;;;5070955;28;20896;-87
2020/12/03 12:32:06;;;;;;;32.50;14.35;;;18.50;95.60;;;;;;5070030;28;20452;-88
2020/12/03 12:34:33;;;;;;;30.58;13.98;;;18.60;95.70;;;;;;5068945;28;20378;-87
2020/12/03 12:37:01;;;;;;;37.25;15.45;;;18.50;95.70;;;;;;5070419;28;20379;-88
2020/12/03 12:39:28;;;;;;;34.55;14.82;;;18.40;95.70;;;;;;5071249;28;20461;-88
2020/12/03 12:42:04;;;;;;;32.33;14.73;;;18.40;95.90;;;;;;5055078;28;20811;-89
2020/12/03 12:44:31;;;;;;;37.70;15.90;;;18.40;96.10;;;;;;5073837;28;20390;-89
2020/12/03 12:47:03;;;;;;;34.25;15.65;;;18.40;95.90;;;;;;5071005;28;20382;-88
2020/12/03 12:49:31;;;;;;;35.08;15.43;;;18.40;95.90;;;;;;5070419;28;20485;-88
2020/12/03 12:51:58;;;;;;;40.38;15.55;;;18.50;95.90;;;;;;5071963;28;20409;-88
2020/12/03 12:54:26;;;;;;;42.70;15.90;;;18.50;95.90;;;;;;5072469;28;20389;-88
2020/12/03 12:56:54;;;;;;;38.83;15.10;;;18.50;96.00;;;;;;5104773;28;20402;-88
2020/12/03 12:59:22;;;;;;;37.33;15.27;;;18.50;95.90;;;;;;5071878;28;20374;-89
2020/12/03 13:01:51;;;;;;;38.67;16.38;;;18.50;95.90;;;;;;5070050;28;20382;-88
2020/12/03 13:04:20;;;;;;;39.20;14.80;;;18.50;95.80;;;;;;5065541;28;20397;-88
2020/12/03 13:06:47;;;;;;;37.55;14.80;;;18.50;96.10;;;;;;5066541;28;20385;-87
2020/12/03 13:09:14;;;;;;;33.22;14.32;;;18.40;95.90;;;;;;5064632;28;20459;-88
2020/12/03 13:11:43;;;;;;;36.60;14.80;;;18.30;95.80;;;;;;5066753;28;20382;-88
2020/12/03 13:14:10;;;;;;;39.38;14.43;;;18.30;96.20;;;;;;5103563;28;20390;-88
2020/12/03 13:16:39;;;;;;;35.90;14.67;;;18.30;96.00;;;;;;5103735;28;20462;-89
2020/12/03 13:19:08;;;;;;;37.97;13.90;;;18.20;96.20;;;;;;5069999;28;20381;-88
2020/12/03 13:21:36;;;;;;;35.10;14.07;;;18.20;96.40;;;;;;5069778;28;20937;-88
2020/12/03 13:24:04;;;;;;;36.63;13.70;;;18.20;96.40;;;;;;5070149;28;20389;-89